Meredith C Reinauer — WDB3775 — position and weather

sailwx.info

Track history (hours):
 
Tides and Currents Weather Stations Pressure Air Temp Water Temp Dewpoint Dewpoint Depression Visibility Wind Speed Wind Dir Waves Ship Positions

Meredith C Reinauer

Owner: REINAUER TRANSPORTATION CO LLC, STATEN ISLAND, NY. More information available from US FCC via Universal Licensing System and Coast Guard Vessel Documentation Center.

Last reported at 2017-Nov-16 05:39 UTC. Time now 2017-Nov-17 18:00 UTC.
Position N 39°36' W 074°01'.

Length 178 m; draft 8 m.

Type: . MMSI: 366891140.

Date/timePositionNaut miles runAvg speedWind from/ knotsBaromVisibWave heightAir tempDewpointWater temp
2017-Nov-16 05:39N 39°36' W 074°01'210.4
2017-Nov-16 05:29N 39°37' W 074°01'610.3
2017-Nov-16 04:54N 39°43' W 073°59'510.3
2017-Nov-16 04:26N 39°48' W 073°59'2610.3
2017-Nov-16 01:53N 40°14' W 073°56'4 9.6
2017-Nov-16 01:27N 40°18' W 073°55'9 9.7
2017-Nov-16 00:29N 40°28' W 073°54'4 9.1
2017-Nov-15 23:59N 40°30' W 073°58'4 9.4
2017-Nov-15 23:30N 40°34' W 074°02'5 9.5
2017-Nov-15 23:00N 40°39' W 074°04'3 6.4
2017-Nov-15 22:30N 40°38' W 074°08'0 0.0
2017-Nov-15 22:00N 40°38' W 074°08'3 5.7
2017-Nov-15 21:30N 40°39' W 074°04'3 5.0
2017-Nov-15 21:00N 40°40' W 074°01'0 0.0
2017-Nov-15 20:30N 40°40' W 074°01'0 0.0
2017-Nov-15 20:00N 40°40' W 074°01'0 0.0
2017-Nov-15 19:29N 40°40' W 074°01'0 0.0
2017-Nov-15 18:59N 40°40' W 074°01'0 0.7
2017-Nov-15 18:30N 40°40' W 074°01'510.4
2017-Nov-15 18:00N 40°39' W 074°08'0 0.1
2017-Nov-15 17:30N 40°38' W 074°08'0 0.0
2017-Nov-15 17:00N 40°38' W 074°08'0 0.0
2017-Nov-15 16:30N 40°38' W 074°08'0 0.0
2017-Nov-15 16:00N 40°38' W 074°08'0 0.0
2017-Nov-15 15:30N 40°38' W 074°08'0 0.0
2017-Nov-15 15:00N 40°38' W 074°08'0 0.0
2017-Nov-15 14:30N 40°38' W 074°08'0 0.0
2017-Nov-15 14:00N 40°38' W 074°08'0 0.0
2017-Nov-15 13:27N 40°38' W 074°08'0 0.0
2017-Nov-15 13:00N 40°38' W 074°08'0 0.0
2017-Nov-15 12:30N 40°38' W 074°08'0 0.0
2017-Nov-15 11:57N 40°38' W 074°08'0 0.0
2017-Nov-15 11:27N 40°38' W 074°08'0 0.0
2017-Nov-15 11:00N 40°38' W 074°08'0 0.0
2017-Nov-15 10:27N 40°38' W 074°08'0 0.0
2017-Nov-15 10:00N 40°38' W 074°08'0 0.0
2017-Nov-15 09:30N 40°38' W 074°08'0 0.0
2017-Nov-15 08:54N 40°38' W 074°08'0 0.0
2017-Nov-15 08:30N 40°38' W 074°08'0 0.0
2017-Nov-15 08:00N 40°38' W 074°08'0 0.0
2017-Nov-15 07:27N 40°38' W 074°08'0 0.0
2017-Nov-15 07:00N 40°38' W 074°08'0 0.0
2017-Nov-15 06:30N 40°38' W 074°08'0 0.0
2017-Nov-15 06:00N 40°38' W 074°08'0 0.0
2017-Nov-15 05:30N 40°38' W 074°08'3 5.8
2017-Nov-15 05:00N 40°38' W 074°11'0 0.6
2017-Nov-15 04:30N 40°38' W 074°12'0 0.0
2017-Nov-15 04:00N 40°38' W 074°12'0 0.0
2017-Nov-15 03:30N 40°38' W 074°12'0 0.0
2017-Nov-15 03:00N 40°38' W 074°12'0 0.0
2017-Nov-15 02:30N 40°38' W 074°12'0 0.0
2017-Nov-15 02:00N 40°38' W 074°12'0 0.0
2017-Nov-15 01:30N 40°38' W 074°12'0 0.0
2017-Nov-15 01:00N 40°38' W 074°12'0 0.0
2017-Nov-15 00:30N 40°38' W 074°12'0 0.0
2017-Nov-15 00:00N 40°38' W 074°12'1 2.7
2017-Nov-14 23:30N 40°39' W 074°10'2 4.0
2017-Nov-14 23:00N 40°39' W 074°08'0 0.4
2017-Nov-14 22:30N 40°39' W 074°08'0 0.3
2017-Nov-14 21:59N 40°39' W 074°08'0 0.1
2017-Nov-14 21:29N 40°38' W 074°08'0 0.0
2017-Nov-14 20:56N 40°38' W 074°08'0 0.0
2017-Nov-14 20:26N 40°38' W 074°08'0 0.0
2017-Nov-14 19:59N 40°38' W 074°08'0 0.0
2017-Nov-14 19:26N 40°38' W 074°08'0 0.0
2017-Nov-14 18:59N 40°38' W 074°08'0 0.0
2017-Nov-14 18:29N 40°38' W 074°08'0 0.0
2017-Nov-14 17:59N 40°38' W 074°08'0 0.0
2017-Nov-14 17:29N 40°38' W 074°08'0 0.0
2017-Nov-14 16:59N 40°38' W 074°08'0 0.0
2017-Nov-14 16:26N 40°38' W 074°08'0 0.0
2017-Nov-14 15:56N 40°38' W 074°08'0 0.0
2017-Nov-14 15:29N 40°38' W 074°08'0 0.0
2017-Nov-14 14:59N 40°38' W 074°08'0 0.0
2017-Nov-14 14:29N 40°38' W 074°08'0 0.0
2017-Nov-14 13:59N 40°38' W 074°08'0 0.0
2017-Nov-14 13:26N 40°38' W 074°08'0 0.0
2017-Nov-14 12:59N 40°38' W 074°08'0 0.0
2017-Nov-14 12:25N 40°38' W 074°08'0 0.0
2017-Nov-14 11:52N 40°38' W 074°08'0 0.0
2017-Nov-14 11:28N 40°38' W 074°08'0 0.0
2017-Nov-14 10:52N 40°38' W 074°08'0 0.0
2017-Nov-14 10:28N 40°38' W 074°08'0 0.0
2017-Nov-14 09:58N 40°38' W 074°08'0 0.0
2017-Nov-14 09:28N 40°38' W 074°08'0 0.0
2017-Nov-14 08:58N 40°38' W 074°08'0 0.0
2017-Nov-14 08:28N 40°38' W 074°08'0 0.1
2017-Nov-14 07:58N 40°38' W 074°08'0 0.0
2017-Nov-14 07:28N 40°38' W 074°08'0 0.0
2017-Nov-14 06:58N 40°38' W 074°08'0 0.0
2017-Nov-14 06:28N 40°38' W 074°08'0 0.0
2017-Nov-14 05:58N 40°38' W 074°08'0 0.5
2017-Nov-14 05:30N 40°39' W 074°08'3 5.7
2017-Nov-14 05:00N 40°38' W 074°12'0 0.0
2017-Nov-14 04:30N 40°38' W 074°12'0 0.0
2017-Nov-14 04:00N 40°38' W 074°12'0 0.0
2017-Nov-14 03:30N 40°38' W 074°12'0 0.0
2017-Nov-14 03:00N 40°38' W 074°12'0 0.0
2017-Nov-14 02:30N 40°38' W 074°12'0 0.0
2017-Nov-14 02:00N 40°38' W 074°12'0 0.0
2017-Nov-14 01:30N 40°38' W 074°12'0 0.0
2017-Nov-14 01:00N 40°38' W 074°12'0 0.2
2017-Nov-14 00:30N 40°38' W 074°12'0 0.1
2017-Nov-14 00:00N 40°38' W 074°12'0 0.0
2017-Nov-13 23:30N 40°38' W 074°12'3 5.7
2017-Nov-13 22:58N 40°38' W 074°08'0 0.0
2017-Nov-13 22:25N 40°38' W 074°08'0 0.0
2017-Nov-13 21:49N 40°38' W 074°08'3 0.2
2017-Nov-13 01:58N 40°38' W 074°12'0 0.0
2017-Nov-13 01:28N 40°38' W 074°12'0 0.0
2017-Nov-13 00:58N 40°38' W 074°12'0 0.0
2017-Nov-13 00:28N 40°38' W 074°12'0 0.0
2017-Nov-12 23:58N 40°38' W 074°12'0 0.0
2017-Nov-12 23:28N 40°38' W 074°12'0 0.0
2017-Nov-12 22:58N 40°38' W 074°12'0 0.0
2017-Nov-12 22:28N 40°38' W 074°12'0 0.0
2017-Nov-12 21:58N 40°38' W 074°12'0 0.0
2017-Nov-12 21:31N 40°38' W 074°12'0 0.0
2017-Nov-12 20:58N 40°38' W 074°12'0 0.0
2017-Nov-12 20:27N 40°38' W 074°12'0 0.0
2017-Nov-12 20:00N 40°38' W 074°12'0 0.0
2017-Nov-12 19:30N 40°38' W 074°12'0 0.0
2017-Nov-12 19:00N 40°38' W 074°12'0 0.0
2017-Nov-12 18:30N 40°38' W 074°12'0 0.0
2017-Nov-12 18:00N 40°38' W 074°12'0 0.0
2017-Nov-12 17:27N 40°38' W 074°12'0 0.0
2017-Nov-12 17:00N 40°38' W 074°12'0 0.0
2017-Nov-12 16:30N 40°38' W 074°12'0 0.0
2017-Nov-12 16:00N 40°38' W 074°12'0 0.0
2017-Nov-12 15:30N 40°38' W 074°12'0 0.0
2017-Nov-12 15:00N 40°38' W 074°12'0 0.0
2017-Nov-12 14:27N 40°38' W 074°12'0 0.0
2017-Nov-12 13:57N 40°38' W 074°12'0 0.0
2017-Nov-12 13:30N 40°38' W 074°12'0 0.0
2017-Nov-12 12:57N 40°38' W 074°12'0 0.0
2017-Nov-12 12:30N 40°38' W 074°12'0 0.0
2017-Nov-12 12:00N 40°38' W 074°12'0 0.0
2017-Nov-12 11:30N 40°38' W 074°12'0 0.0
2017-Nov-12 11:00N 40°38' W 074°12'0 0.0
2017-Nov-12 10:27N 40°38' W 074°12'0 0.0
2017-Nov-12 10:00N 40°38' W 074°12'0 0.0
2017-Nov-12 09:27N 40°38' W 074°12'0 0.0
2017-Nov-12 09:00N 40°38' W 074°12'0 0.0
2017-Nov-12 08:30N 40°38' W 074°12'0 0.0
2017-Nov-12 08:00N 40°38' W 074°12'0 0.0
2017-Nov-12 07:27N 40°38' W 074°12'0 0.0
2017-Nov-12 07:00N 40°38' W 074°12'0 0.0
2017-Nov-12 06:27N 40°38' W 074°12'0 0.0
2017-Nov-12 06:00N 40°38' W 074°12'0 0.0
2017-Nov-12 05:30N 40°38' W 074°12'0 0.0
2017-Nov-12 05:00N 40°38' W 074°12'0 0.0
2017-Nov-12 04:30N 40°38' W 074°12'0 0.0
2017-Nov-12 04:00N 40°38' W 074°12'0 0.0
2017-Nov-12 03:27N 40°38' W 074°12'0 0.0
2017-Nov-12 03:00N 40°38' W 074°12'0 0.0
2017-Nov-12 02:27N 40°38' W 074°12'0 0.0
2017-Nov-12 02:00N 40°38' W 074°12'0 0.0
2017-Nov-12 01:30N 40°38' W 074°12'0 0.0
2017-Nov-12 00:57N 40°38' W 074°12'0 0.0
2017-Nov-12 00:30N 40°38' W 074°12'0 0.0
2017-Nov-11 23:57N 40°38' W 074°12'0 0.0
2017-Nov-11 23:30N 40°38' W 074°12'0 0.0
2017-Nov-11 23:00N 40°38' W 074°12'0 0.0
2017-Nov-11 22:30N 40°38' W 074°12'0 0.0
2017-Nov-11 21:57N 40°38' W 074°12'0 0.0
2017-Nov-11 21:30N 40°38' W 074°12'0 0.0
2017-Nov-11 21:00N 40°38' W 074°12'0 0.0
2017-Nov-11 20:30N 40°38' W 074°12'0 0.0
2017-Nov-11 19:57N 40°38' W 074°12'0 0.0
2017-Nov-11 19:30N 40°38' W 074°12'0 0.0
2017-Nov-11 18:57N 40°38' W 074°12'0 0.0
2017-Nov-11 18:30N 40°38' W 074°12'0 0.0
2017-Nov-11 17:54N 40°38' W 074°12'0 0.0
2017-Nov-11 17:30N 40°38' W 074°12'0 0.0
2017-Nov-11 16:57N 40°38' W 074°12'0 0.0
2017-Nov-11 16:24N 40°38' W 074°12'0 0.1
2017-Nov-11 15:59N 40°38' W 074°12'3 6.8
2017-Nov-11 15:30N 40°39' W 074°08'4 8.8
2017-Nov-11 15:00N 40°40' W 074°03'0 1.0
2017-Nov-11 14:30N 40°40' W 074°02'0 0.0
2017-Nov-11 14:00N 40°40' W 074°02'0 0.0
2017-Nov-11 13:30N 40°40' W 074°02'0 0.0
2017-Nov-11 13:00N 40°40' W 074°02'0 0.0
2017-Nov-11 12:30N 40°40' W 074°02'0 0.0
2017-Nov-11 12:00N 40°40' W 074°02'0 0.0
2017-Nov-11 11:30N 40°40' W 074°02'0 0.0
2017-Nov-11 11:00N 40°40' W 074°02'0 0.0
2017-Nov-11 10:30N 40°40' W 074°02'0 0.0
2017-Nov-11 10:00N 40°40' W 074°02'0 0.1
2017-Nov-11 09:30N 40°40' W 074°02'0 0.0
2017-Nov-11 09:00N 40°40' W 074°02'0 0.3
2017-Nov-11 08:30N 40°40' W 074°02'0 0.1
2017-Nov-11 08:00N 40°40' W 074°02'0 0.0
2017-Nov-11 07:30N 40°40' W 074°02'0 0.0
2017-Nov-11 07:00N 40°40' W 074°02'0 0.0
2017-Nov-11 06:30N 40°40' W 074°02'0 0.0
2017-Nov-11 06:00N 40°40' W 074°02'0 0.1
2017-Nov-11 05:30N 40°40' W 074°02'0 0.0
2017-Nov-11 05:00N 40°40' W 074°02'0 0.1
2017-Nov-11 04:30N 40°40' W 074°02'0 0.2
2017-Nov-11 04:00N 40°40' W 074°02'0 0.1
2017-Nov-11 03:30N 40°40' W 074°02'0 0.0
2017-Nov-11 03:00N 40°40' W 074°02'0 0.0
2017-Nov-11 02:30N 40°40' W 074°02'0 0.0
2017-Nov-11 02:00N 40°40' W 074°02'0 0.0
2017-Nov-11 01:30N 40°40' W 074°02'0 0.0
2017-Nov-11 01:00N 40°40' W 074°02'0 0.0
2017-Nov-11 00:30N 40°40' W 074°02'0 0.0
2017-Nov-11 00:00N 40°40' W 074°02'0 0.0
2017-Nov-10 23:30N 40°40' W 074°02'0 0.0
2017-Nov-10 23:00N 40°40' W 074°02'0 0.0
2017-Nov-10 22:30N 40°40' W 074°02'0 0.0
2017-Nov-10 22:00N 40°40' W 074°02'0 0.0
2017-Nov-10 21:30N 40°40' W 074°02'0 0.1
2017-Nov-10 20:59N 40°40' W 074°02'0 0.0
2017-Nov-10 20:29N 40°40' W 074°02'0 0.0
2017-Nov-10 19:59N 40°40' W 074°02'0 0.1
2017-Nov-10 19:29N 40°40' W 074°02'0 0.1
2017-Nov-10 18:59N 40°40' W 074°02'0 0.1
2017-Nov-10 18:29N 40°40' W 074°02'0 0.0
2017-Nov-10 17:59N 40°40' W 074°02'0 0.0
2017-Nov-10 17:29N 40°40' W 074°02'0 0.1
2017-Nov-10 16:59N 40°40' W 074°02'0 0.0
2017-Nov-10 16:29N 40°40' W 074°02'0 0.0
2017-Nov-10 15:59N 40°40' W 074°02'0 0.0
2017-Nov-10 15:26N 40°40' W 074°02'0 0.1
2017-Nov-10 14:59N 40°40' W 074°02'0 0.0
2017-Nov-10 14:29N 40°40' W 074°02'0 0.1
2017-Nov-10 13:59N 40°40' W 074°02'0 0.1
2017-Nov-10 13:29N 40°40' W 074°02'1 1.9
2017-Nov-10 12:59N 40°39' W 074°03'0 0.0
2017-Nov-10 12:29N 40°39' W 074°03'0 0.1
2017-Nov-10 11:59N 40°39' W 074°03'0 0.0
2017-Nov-10 11:29N 40°39' W 074°03'0 0.0
2017-Nov-10 10:59N 40°39' W 074°03'0 0.0
2017-Nov-10 10:29N 40°39' W 074°03'0 0.0
2017-Nov-10 09:59N 40°39' W 074°03'0 0.0
2017-Nov-10 09:29N 40°39' W 074°03'0 0.1
2017-Nov-10 08:59N 40°39' W 074°02'0 0.1
2017-Nov-10 08:29N 40°39' W 074°02'0 0.2
2017-Nov-10 07:59N 40°39' W 074°02'0 0.1
2017-Nov-10 07:29N 40°39' W 074°02'0 0.0
2017-Nov-10 06:59N 40°39' W 074°02'0 0.0
2017-Nov-10 06:29N 40°39' W 074°02'0 0.0
2017-Nov-10 05:59N 40°39' W 074°02'0 0.0
2017-Nov-10 05:29N 40°39' W 074°02'0 0.0
2017-Nov-10 04:59N 40°39' W 074°02'0 0.0
2017-Nov-10 04:29N 40°39' W 074°02'0 0.0
2017-Nov-10 03:59N 40°39' W 074°02'0 0.1
2017-Nov-10 03:29N 40°39' W 074°02'0 0.1
2017-Nov-10 02:59N 40°39' W 074°02'0 0.1
2017-Nov-10 02:29N 40°39' W 074°02'0 0.2
2017-Nov-10 01:59N 40°39' W 074°02'0 0.1
2017-Nov-10 01:30N 40°39' W 074°03'1 1.5
2017-Nov-10 01:00N 40°39' W 074°03'5 8.9
2017-Nov-10 00:30N 40°34' W 074°02'5 9.2
2017-Nov-10 00:00N 40°31' W 073°58'4 8.7
2017-Nov-09 23:29N 40°27' W 073°54'3610.2
2017-Nov-09 19:58N 39°52' W 073°58'610.9
2017-Nov-09 19:27N 39°46' W 073°59'610.8
2017-Nov-09 18:54N 39°41' W 074°02'  
Track history (hours):
 
Tides and Currents Weather Stations Pressure Air Temp Water Temp Dewpoint Dewpoint Depression Visibility Wind Speed Wind Dir Waves Ship Positions

Meredith C Reinauer

Owner: REINAUER TRANSPORTATION CO LLC, STATEN ISLAND, NY. More information available from US FCC via Universal Licensing System and Coast Guard Vessel Documentation Center.

Last reported at 2017-Nov-16 05:39 UTC. Time now 2017-Nov-17 18:00 UTC.
Position N 39°36' W 074°01'.

Length 178 m; draft 8 m.

Type: . MMSI: 366891140.

Date/timePositionNaut miles runAvg speedWind from/ knotsBaromVisibWave heightAir tempDewpointWater temp
2017-Nov-16 05:39N 39°36' W 074°01'210.4
2017-Nov-16 05:29N 39°37' W 074°01'610.3
2017-Nov-16 04:54N 39°43' W 073°59'510.3
2017-Nov-16 04:26N 39°48' W 073°59'2610.3
2017-Nov-16 01:53N 40°14' W 073°56'4 9.6
2017-Nov-16 01:27N 40°18' W 073°55'9 9.7
2017-Nov-16 00:29N 40°28' W 073°54'4 9.1
2017-Nov-15 23:59N 40°30' W 073°58'4 9.4
2017-Nov-15 23:30N 40°34' W 074°02'5 9.5
2017-Nov-15 23:00N 40°39' W 074°04'3 6.4
2017-Nov-15 22:30N 40°38' W 074°08'0 0.0
2017-Nov-15 22:00N 40°38' W 074°08'3 5.7
2017-Nov-15 21:30N 40°39' W 074°04'3 5.0
2017-Nov-15 21:00N 40°40' W 074°01'0 0.0
2017-Nov-15 20:30N 40°40' W 074°01'0 0.0
2017-Nov-15 20:00N 40°40' W 074°01'0 0.0
2017-Nov-15 19:29N 40°40' W 074°01'0 0.0
2017-Nov-15 18:59N 40°40' W 074°01'0 0.7
2017-Nov-15 18:30N 40°40' W 074°01'510.4
2017-Nov-15 18:00N 40°39' W 074°08'0 0.1
2017-Nov-15 17:30N 40°38' W 074°08'0 0.0
2017-Nov-15 17:00N 40°38' W 074°08'0 0.0
2017-Nov-15 16:30N 40°38' W 074°08'0 0.0
2017-Nov-15 16:00N 40°38' W 074°08'0 0.0
2017-Nov-15 15:30N 40°38' W 074°08'0 0.0
2017-Nov-15 15:00N 40°38' W 074°08'0 0.0
2017-Nov-15 14:30N 40°38' W 074°08'0 0.0
2017-Nov-15 14:00N 40°38' W 074°08'0 0.0
2017-Nov-15 13:27N 40°38' W 074°08'0 0.0
2017-Nov-15 13:00N 40°38' W 074°08'0 0.0
2017-Nov-15 12:30N 40°38' W 074°08'0 0.0
2017-Nov-15 11:57N 40°38' W 074°08'0 0.0
2017-Nov-15 11:27N 40°38' W 074°08'0 0.0
2017-Nov-15 11:00N 40°38' W 074°08'0 0.0
2017-Nov-15 10:27N 40°38' W 074°08'0 0.0
2017-Nov-15 10:00N 40°38' W 074°08'0 0.0
2017-Nov-15 09:30N 40°38' W 074°08'0 0.0
2017-Nov-15 08:54N 40°38' W 074°08'0 0.0
2017-Nov-15 08:30N 40°38' W 074°08'0 0.0
2017-Nov-15 08:00N 40°38' W 074°08'0 0.0
2017-Nov-15 07:27N 40°38' W 074°08'0 0.0
2017-Nov-15 07:00N 40°38' W 074°08'0 0.0
2017-Nov-15 06:30N 40°38' W 074°08'0 0.0
2017-Nov-15 06:00N 40°38' W 074°08'0 0.0
2017-Nov-15 05:30N 40°38' W 074°08'3 5.8
2017-Nov-15 05:00N 40°38' W 074°11'0 0.6
2017-Nov-15 04:30N 40°38' W 074°12'0 0.0
2017-Nov-15 04:00N 40°38' W 074°12'0 0.0
2017-Nov-15 03:30N 40°38' W 074°12'0 0.0
2017-Nov-15 03:00N 40°38' W 074°12'0 0.0
2017-Nov-15 02:30N 40°38' W 074°12'0 0.0
2017-Nov-15 02:00N 40°38' W 074°12'0 0.0
2017-Nov-15 01:30N 40°38' W 074°12'0 0.0
2017-Nov-15 01:00N 40°38' W 074°12'0 0.0
2017-Nov-15 00:30N 40°38' W 074°12'0 0.0
2017-Nov-15 00:00N 40°38' W 074°12'1 2.7
2017-Nov-14 23:30N 40°39' W 074°10'2 4.0
2017-Nov-14 23:00N 40°39' W 074°08'0 0.4
2017-Nov-14 22:30N 40°39' W 074°08'0 0.3
2017-Nov-14 21:59N 40°39' W 074°08'0 0.1
2017-Nov-14 21:29N 40°38' W 074°08'0 0.0
2017-Nov-14 20:56N 40°38' W 074°08'0 0.0
2017-Nov-14 20:26N 40°38' W 074°08'0 0.0
2017-Nov-14 19:59N 40°38' W 074°08'0 0.0
2017-Nov-14 19:26N 40°38' W 074°08'0 0.0
2017-Nov-14 18:59N 40°38' W 074°08'0 0.0
2017-Nov-14 18:29N 40°38' W 074°08'0 0.0
2017-Nov-14 17:59N 40°38' W 074°08'0 0.0
2017-Nov-14 17:29N 40°38' W 074°08'0 0.0
2017-Nov-14 16:59N 40°38' W 074°08'0 0.0
2017-Nov-14 16:26N 40°38' W 074°08'0 0.0
2017-Nov-14 15:56N 40°38' W 074°08'0 0.0
2017-Nov-14 15:29N 40°38' W 074°08'0 0.0
2017-Nov-14 14:59N 40°38' W 074°08'0 0.0
2017-Nov-14 14:29N 40°38' W 074°08'0 0.0
2017-Nov-14 13:59N 40°38' W 074°08'0 0.0
2017-Nov-14 13:26N 40°38' W 074°08'0 0.0
2017-Nov-14 12:59N 40°38' W 074°08'0 0.0
2017-Nov-14 12:25N 40°38' W 074°08'0 0.0
2017-Nov-14 11:52N 40°38' W 074°08'0 0.0
2017-Nov-14 11:28N 40°38' W 074°08'0 0.0
2017-Nov-14 10:52N 40°38' W 074°08'0 0.0
2017-Nov-14 10:28N 40°38' W 074°08'0 0.0
2017-Nov-14 09:58N 40°38' W 074°08'0 0.0
2017-Nov-14 09:28N 40°38' W 074°08'0 0.0
2017-Nov-14 08:58N 40°38' W 074°08'0 0.0
2017-Nov-14 08:28N 40°38' W 074°08'0 0.1
2017-Nov-14 07:58N 40°38' W 074°08'0 0.0
2017-Nov-14 07:28N 40°38' W 074°08'0 0.0
2017-Nov-14 06:58N 40°38' W 074°08'0 0.0
2017-Nov-14 06:28N 40°38' W 074°08'0 0.0
2017-Nov-14 05:58N 40°38' W 074°08'0 0.5
2017-Nov-14 05:30N 40°39' W 074°08'3 5.7
2017-Nov-14 05:00N 40°38' W 074°12'0 0.0
2017-Nov-14 04:30N 40°38' W 074°12'0 0.0
2017-Nov-14 04:00N 40°38' W 074°12'0 0.0
2017-Nov-14 03:30N 40°38' W 074°12'0 0.0
2017-Nov-14 03:00N 40°38' W 074°12'0 0.0
2017-Nov-14 02:30N 40°38' W 074°12'0 0.0
2017-Nov-14 02:00N 40°38' W 074°12'0 0.0
2017-Nov-14 01:30N 40°38' W 074°12'0 0.0
2017-Nov-14 01:00N 40°38' W 074°12'0 0.2
2017-Nov-14 00:30N 40°38' W 074°12'0 0.1
2017-Nov-14 00:00N 40°38' W 074°12'0 0.0
2017-Nov-13 23:30N 40°38' W 074°12'3 5.7
2017-Nov-13 22:58N 40°38' W 074°08'0 0.0
2017-Nov-13 22:25N 40°38' W 074°08'0 0.0
2017-Nov-13 21:49N 40°38' W 074°08'3 0.2
2017-Nov-13 01:58N 40°38' W 074°12'0 0.0
2017-Nov-13 01:28N 40°38' W 074°12'0 0.0
2017-Nov-13 00:58N 40°38' W 074°12'0 0.0
2017-Nov-13 00:28N 40°38' W 074°12'0 0.0
2017-Nov-12 23:58N 40°38' W 074°12'0 0.0
2017-Nov-12 23:28N 40°38' W 074°12'0 0.0
2017-Nov-12 22:58N 40°38' W 074°12'0 0.0
2017-Nov-12 22:28N 40°38' W 074°12'0 0.0
2017-Nov-12 21:58N 40°38' W 074°12'0 0.0
2017-Nov-12 21:31N 40°38' W 074°12'0 0.0
2017-Nov-12 20:58N 40°38' W 074°12'0 0.0
2017-Nov-12 20:27N 40°38' W 074°12'0 0.0
2017-Nov-12 20:00N 40°38' W 074°12'0 0.0
2017-Nov-12 19:30N 40°38' W 074°12'0 0.0
2017-Nov-12 19:00N 40°38' W 074°12'0 0.0
2017-Nov-12 18:30N 40°38' W 074°12'0 0.0
2017-Nov-12 18:00N 40°38' W 074°12'0 0.0
2017-Nov-12 17:27N 40°38' W 074°12'0 0.0
2017-Nov-12 17:00N 40°38' W 074°12'0 0.0
2017-Nov-12 16:30N 40°38' W 074°12'0 0.0
2017-Nov-12 16:00N 40°38' W 074°12'0 0.0
2017-Nov-12 15:30N 40°38' W 074°12'0 0.0
2017-Nov-12 15:00N 40°38' W 074°12'0 0.0
2017-Nov-12 14:27N 40°38' W 074°12'0 0.0
2017-Nov-12 13:57N 40°38' W 074°12'0 0.0
2017-Nov-12 13:30N 40°38' W 074°12'0 0.0
2017-Nov-12 12:57N 40°38' W 074°12'0 0.0
2017-Nov-12 12:30N 40°38' W 074°12'0 0.0
2017-Nov-12 12:00N 40°38' W 074°12'0 0.0
2017-Nov-12 11:30N 40°38' W 074°12'0 0.0
2017-Nov-12 11:00N 40°38' W 074°12'0 0.0
2017-Nov-12 10:27N 40°38' W 074°12'0 0.0
2017-Nov-12 10:00N 40°38' W 074°12'0 0.0
2017-Nov-12 09:27N 40°38' W 074°12'0 0.0
2017-Nov-12 09:00N 40°38' W 074°12'0 0.0
2017-Nov-12 08:30N 40°38' W 074°12'0 0.0
2017-Nov-12 08:00N 40°38' W 074°12'0 0.0
2017-Nov-12 07:27N 40°38' W 074°12'0 0.0
2017-Nov-12 07:00N 40°38' W 074°12'0 0.0
2017-Nov-12 06:27N 40°38' W 074°12'0 0.0
2017-Nov-12 06:00N 40°38' W 074°12'0 0.0
2017-Nov-12 05:30N 40°38' W 074°12'0 0.0
2017-Nov-12 05:00N 40°38' W 074°12'0 0.0
2017-Nov-12 04:30N 40°38' W 074°12'0 0.0
2017-Nov-12 04:00N 40°38' W 074°12'0 0.0
2017-Nov-12 03:27N 40°38' W 074°12'0 0.0
2017-Nov-12 03:00N 40°38' W 074°12'0 0.0
2017-Nov-12 02:27N 40°38' W 074°12'0 0.0
2017-Nov-12 02:00N 40°38' W 074°12'0 0.0
2017-Nov-12 01:30N 40°38' W 074°12'0 0.0
2017-Nov-12 00:57N 40°38' W 074°12'0 0.0
2017-Nov-12 00:30N 40°38' W 074°12'0 0.0
2017-Nov-11 23:57N 40°38' W 074°12'0 0.0
2017-Nov-11 23:30N 40°38' W 074°12'0 0.0
2017-Nov-11 23:00N 40°38' W 074°12'0 0.0
2017-Nov-11 22:30N 40°38' W 074°12'0 0.0
2017-Nov-11 21:57N 40°38' W 074°12'0 0.0
2017-Nov-11 21:30N 40°38' W 074°12'0 0.0
2017-Nov-11 21:00N 40°38' W 074°12'0 0.0
2017-Nov-11 20:30N 40°38' W 074°12'0 0.0
2017-Nov-11 19:57N 40°38' W 074°12'0 0.0
2017-Nov-11 19:30N 40°38' W 074°12'0 0.0
2017-Nov-11 18:57N 40°38' W 074°12'0 0.0
2017-Nov-11 18:30N 40°38' W 074°12'0 0.0
2017-Nov-11 17:54N 40°38' W 074°12'0 0.0
2017-Nov-11 17:30N 40°38' W 074°12'0 0.0
2017-Nov-11 16:57N 40°38' W 074°12'0 0.0
2017-Nov-11 16:24N 40°38' W 074°12'0 0.1
2017-Nov-11 15:59N 40°38' W 074°12'3 6.8
2017-Nov-11 15:30N 40°39' W 074°08'4 8.8
2017-Nov-11 15:00N 40°40' W 074°03'0 1.0
2017-Nov-11 14:30N 40°40' W 074°02'0 0.0
2017-Nov-11 14:00N 40°40' W 074°02'0 0.0
2017-Nov-11 13:30N 40°40' W 074°02'0 0.0
2017-Nov-11 13:00N 40°40' W 074°02'0 0.0
2017-Nov-11 12:30N 40°40' W 074°02'0 0.0
2017-Nov-11 12:00N 40°40' W 074°02'0 0.0
2017-Nov-11 11:30N 40°40' W 074°02'0 0.0
2017-Nov-11 11:00N 40°40' W 074°02'0 0.0
2017-Nov-11 10:30N 40°40' W 074°02'0 0.0
2017-Nov-11 10:00N 40°40' W 074°02'0 0.1
2017-Nov-11 09:30N 40°40' W 074°02'0 0.0
2017-Nov-11 09:00N 40°40' W 074°02'0 0.3
2017-Nov-11 08:30N 40°40' W 074°02'0 0.1
2017-Nov-11 08:00N 40°40' W 074°02'0 0.0
2017-Nov-11 07:30N 40°40' W 074°02'0 0.0
2017-Nov-11 07:00N 40°40' W 074°02'0 0.0
2017-Nov-11 06:30N 40°40' W 074°02'0 0.0
2017-Nov-11 06:00N 40°40' W 074°02'0 0.1
2017-Nov-11 05:30N 40°40' W 074°02'0 0.0
2017-Nov-11 05:00N 40°40' W 074°02'0 0.1
2017-Nov-11 04:30N 40°40' W 074°02'0 0.2
2017-Nov-11 04:00N 40°40' W 074°02'0 0.1
2017-Nov-11 03:30N 40°40' W 074°02'0 0.0
2017-Nov-11 03:00N 40°40' W 074°02'0 0.0
2017-Nov-11 02:30N 40°40' W 074°02'0 0.0
2017-Nov-11 02:00N 40°40' W 074°02'0 0.0
2017-Nov-11 01:30N 40°40' W 074°02'0 0.0
2017-Nov-11 01:00N 40°40' W 074°02'0 0.0
2017-Nov-11 00:30N 40°40' W 074°02'0 0.0
2017-Nov-11 00:00N 40°40' W 074°02'0 0.0
2017-Nov-10 23:30N 40°40' W 074°02'0 0.0
2017-Nov-10 23:00N 40°40' W 074°02'0 0.0
2017-Nov-10 22:30N 40°40' W 074°02'0 0.0
2017-Nov-10 22:00N 40°40' W 074°02'0 0.0
2017-Nov-10 21:30N 40°40' W 074°02'0 0.1
2017-Nov-10 20:59N 40°40' W 074°02'0 0.0
2017-Nov-10 20:29N 40°40' W 074°02'0 0.0
2017-Nov-10 19:59N 40°40' W 074°02'0 0.1
2017-Nov-10 19:29N 40°40' W 074°02'0 0.1
2017-Nov-10 18:59N 40°40' W 074°02'0 0.1
2017-Nov-10 18:29N 40°40' W 074°02'0 0.0
2017-Nov-10 17:59N 40°40' W 074°02'0 0.0
2017-Nov-10 17:29N 40°40' W 074°02'0 0.1
2017-Nov-10 16:59N 40°40' W 074°02'0 0.0
2017-Nov-10 16:29N 40°40' W 074°02'0 0.0
2017-Nov-10 15:59N 40°40' W 074°02'0 0.0
2017-Nov-10 15:26N 40°40' W 074°02'0 0.1
2017-Nov-10 14:59N 40°40' W 074°02'0 0.0
2017-Nov-10 14:29N 40°40' W 074°02'0 0.1
2017-Nov-10 13:59N 40°40' W 074°02'0 0.1
2017-Nov-10 13:29N 40°40' W 074°02'1 1.9
2017-Nov-10 12:59N 40°39' W 074°03'0 0.0
2017-Nov-10 12:29N 40°39' W 074°03'0 0.1
2017-Nov-10 11:59N 40°39' W 074°03'0 0.0
2017-Nov-10 11:29N 40°39' W 074°03'0 0.0
2017-Nov-10 10:59N 40°39' W 074°03'0 0.0
2017-Nov-10 10:29N 40°39' W 074°03'0 0.0
2017-Nov-10 09:59N 40°39' W 074°03'0 0.0
2017-Nov-10 09:29N 40°39' W 074°03'0 0.1
2017-Nov-10 08:59N 40°39' W 074°02'0 0.1
2017-Nov-10 08:29N 40°39' W 074°02'0 0.2
2017-Nov-10 07:59N 40°39' W 074°02'0 0.1
2017-Nov-10 07:29N 40°39' W 074°02'0 0.0
2017-Nov-10 06:59N 40°39' W 074°02'0 0.0
2017-Nov-10 06:29N 40°39' W 074°02'0 0.0
2017-Nov-10 05:59N 40°39' W 074°02'0 0.0
2017-Nov-10 05:29N 40°39' W 074°02'0 0.0
2017-Nov-10 04:59N 40°39' W 074°02'0 0.0
2017-Nov-10 04:29N 40°39' W 074°02'0 0.0
2017-Nov-10 03:59N 40°39' W 074°02'0 0.1
2017-Nov-10 03:29N 40°39' W 074°02'0 0.1
2017-Nov-10 02:59N 40°39' W 074°02'0 0.1
2017-Nov-10 02:29N 40°39' W 074°02'0 0.2
2017-Nov-10 01:59N 40°39' W 074°02'0 0.1
2017-Nov-10 01:30N 40°39' W 074°03'1 1.5
2017-Nov-10 01:00N 40°39' W 074°03'5 8.9
2017-Nov-10 00:30N 40°34' W 074°02'5 9.2
2017-Nov-10 00:00N 40°31' W 073°58'4 8.7
2017-Nov-09 23:29N 40°27' W 073°54'3610.2
2017-Nov-09 19:58N 39°52' W 073°58'610.9
2017-Nov-09 19:27N 39°46' W 073°59'610.8
2017-Nov-09 18:54N 39°41' W 074°02'  

Dump ship's entire track history